Aérodrome :
LOGIN :

S'inscrire | Disclaimer

   EN    FR    IT 

 










Légende :    VFR   VFR Marginal   IFR   IFR Intensif   IFR Très Intensif
Visi : 
Plafond : 
>= 8 km
>= 3000ft
5 à 8 km
1000 à 3000 ft
1500m à 5 km
500 à 1000 ft
800 à 1500m
200 à 500 ft
< 800m
< 200 ft
Symboles :   Orages  Brouillard  Fortes neiges  Fortes précipitations  Vent > 20 kt
SIGMETs :   Divers  Orages  Givrage  Turbulence  Onde Orograph.  Cendres Volcan.






- Altitude de l'aérodrome : 156 ft
- Code IATA : OMO


LQMO - Mostar

DERNIER METAR :
  • 240900Z 26009KT 7000 -TSRA FEW025 FEW030TCU SCT035 BKN060 12/06 Q1006

METARs EXPIRÉS :
  • 240830Z VRB02KT 9999 FEW025 SCT035 BKN070 14/08 Q1005
  • 240800Z 17004KT 130V210 9999 FEW030 SCT040 BKN070 14/07 Q1006
  • 240730Z 14007KT 090V170 9999 FEW030 FEW035TCU SCT040 14/07 Q1006
  • 240700Z 15006KT 110V190 9999 FEW030 SCT050 13/07 Q1006
  • 240630Z 15007KT 9999 FEW025 SCT045 13/08 Q1006
  • 240600Z 13005KT 9999 FEW025 BKN055 11/09 Q1006
  • 240530Z 13004KT 9999 FEW025 BKN055 11/10 Q1005
  • 240500Z VRB03KT 9999 FEW040 SCT060 10/09 Q1005
  • 240430Z 20004KT 150V260 9999 SCT060 10/09 Q1005

TAF TAF LQMO
Valide du 24 à 06h jusqu'au 25 à 06h UTC


240500Z 2406/2506 16006KT 9999 FEW025 BKN050 TX14/2412Z TN07/2505Z
TEMPO 2406/2417 22012KT 5000 SHRA SCT035TCU BKN045
PROB30
TEMPO 2409/2415 22015G25KT 3000 TSRA FEW030CB BKN040
PROB40
TEMPO 2500/2506 1200 BCFG



MET'MAP, la Météo Aéronautique d'un coup d'oeil ! - Copyright ORBIFLY Décembre 2007 - Disclaimer

ORBIFLY MET'MAP TEAM :

Programmation & Développement : Alexandra Zaïnal
Sur une idée originale de : Baudouin d'Aumeries
Soutien technique & logistique : Manuel Goepfert
Assistance : Marc-Olivier Méhu




SOURCES & CREDITS :

   NOAA